sensor_id;sensor_type;location;lat;lon;timestamp;P1;durP1;ratioP1;P2;durP2;ratioP2
19560;SDS011;9927;47.792;10.616;2023-07-30T00:02:24;3.25;;;3.00;;
19560;SDS011;9927;47.792;10.616;2023-07-30T00:04:51;2.88;;;2.67;;
19560;SDS011;9927;47.792;10.616;2023-07-30T00:07:18;2.67;;;2.58;;
19560;SDS011;9927;47.792;10.616;2023-07-30T00:09:46;2.88;;;2.78;;
19560;SDS011;9927;47.792;10.616;2023-07-30T00:12:13;3.10;;;2.90;;
19560;SDS011;9927;47.792;10.616;2023-07-30T00:14:40;2.70;;;2.60;;
19560;SDS011;9927;47.792;10.616;2023-07-30T00:17:07;3.28;;;3.00;;
19560;SDS011;9927;47.792;10.616;2023-07-30T00:19:34;2.60;;;2.50;;
19560;SDS011;9927;47.792;10.616;2023-07-30T00:22:02;3.13;;;2.92;;
19560;SDS011;9927;47.792;10.616;2023-07-30T00:24:29;2.97;;;2.88;;
19560;SDS011;9927;47.792;10.616;2023-07-30T00:26:56;3.33;;;3.13;;
19560;SDS011;9927;47.792;10.616;2023-07-30T00:29:24;3.33;;;3.03;;
19560;SDS011;9927;47.792;10.616;2023-07-30T00:31:51;3.08;;;2.90;;
19560;SDS011;9927;47.792;10.616;2023-07-30T00:34:18;3.78;;;3.42;;
19560;SDS011;9927;47.792;10.616;2023-07-30T00:36:45;4.68;;;4.30;;
19560;SDS011;9927;47.792;10.616;2023-07-30T00:39:12;4.90;;;4.40;;
19560;SDS011;9927;47.792;10.616;2023-07-30T00:41:40;4.00;;;3.72;;
19560;SDS011;9927;47.792;10.616;2023-07-30T00:44:07;3.65;;;3.40;;
19560;SDS011;9927;47.792;10.616;2023-07-30T00:46:34;3.38;;;3.17;;
19560;SDS011;9927;47.792;10.616;2023-07-30T00:49:02;3.35;;;3.15;;
19560;SDS011;9927;47.792;10.616;2023-07-30T00:51:29;3.55;;;3.28;;
19560;SDS011;9927;47.792;10.616;2023-07-30T00:54:00;3.30;;;3.10;;
19560;SDS011;9927;47.792;10.616;2023-07-30T00:56:27;3.60;;;3.40;;
19560;SDS011;9927;47.792;10.616;2023-07-30T00:58:54;3.45;;;3.13;;
19560;SDS011;9927;47.792;10.616;2023-07-30T01:01:22;3.42;;;3.25;;
19560;SDS011;9927;47.792;10.616;2023-07-30T01:03:50;3.00;;;2.90;;
19560;SDS011;9927;47.792;10.616;2023-07-30T01:06:17;2.95;;;2.85;;
19560;SDS011;9927;47.792;10.616;2023-07-30T01:08:47;3.30;;;3.10;;
19560;SDS011;9927;47.792;10.616;2023-07-30T01:11:15;3.60;;;3.40;;
19560;SDS011;9927;47.792;10.616;2023-07-30T01:13:43;3.58;;;3.28;;
19560;SDS011;9927;47.792;10.616;2023-07-30T01:16:14;3.60;;;3.30;;
19560;SDS011;9927;47.792;10.616;2023-07-30T01:18:41;6.57;;;5.97;;
19560;SDS011;9927;47.792;10.616;2023-07-30T01:21:08;3.50;;;3.30;;
19560;SDS011;9927;47.792;10.616;2023-07-30T01:23:36;3.10;;;3.00;;
19560;SDS011;9927;47.792;10.616;2023-07-30T01:26:10;3.78;;;3.58;;
19560;SDS011;9927;47.792;10.616;2023-07-30T01:28:41;3.50;;;3.30;;
19560;SDS011;9927;47.792;10.616;2023-07-30T01:31:14;2.65;;;2.55;;
19560;SDS011;9927;47.792;10.616;2023-07-30T01:33:43;3.05;;;2.95;;
19560;SDS011;9927;47.792;10.616;2023-07-30T01:36:15;3.63;;;3.42;;
19560;SDS011;9927;47.792;10.616;2023-07-30T01:38:43;4.28;;;3.38;;
19560;SDS011;9927;47.792;10.616;2023-07-30T01:41:10;3.35;;;3.13;;
19560;SDS011;9927;47.792;10.616;2023-07-30T01:43:38;3.05;;;2.85;;
19560;SDS011;9927;47.792;10.616;2023-07-30T01:46:05;3.10;;;2.90;;
19560;SDS011;9927;47.792;10.616;2023-07-30T01:48:32;3.03;;;2.83;;
19560;SDS011;9927;47.792;10.616;2023-07-30T01:50:59;3.55;;;3.25;;
19560;SDS011;9927;47.792;10.616;2023-07-30T01:53:27;3.45;;;3.15;;
19560;SDS011;9927;47.792;10.616;2023-07-30T01:55:54;2.90;;;2.80;;
19560;SDS011;9927;47.792;10.616;2023-07-30T01:58:21;2.83;;;2.70;;
19560;SDS011;9927;47.792;10.616;2023-07-30T02:00:48;3.47;;;3.22;;
19560;SDS011;9927;47.792;10.616;2023-07-30T02:03:16;3.17;;;2.95;;
19560;SDS011;9927;47.792;10.616;2023-07-30T02:05:43;3.33;;;3.13;;
19560;SDS011;9927;47.792;10.616;2023-07-30T02:08:10;3.03;;;2.92;;
19560;SDS011;9927;47.792;10.616;2023-07-30T02:10:40;2.67;;;2.58;;
19560;SDS011;9927;47.792;10.616;2023-07-30T02:13:07;3.40;;;3.20;;
19560;SDS011;9927;47.792;10.616;2023-07-30T02:15:34;3.42;;;3.22;;
19560;SDS011;9927;47.792;10.616;2023-07-30T02:18:06;3.17;;;2.95;;
19560;SDS011;9927;47.792;10.616;2023-07-30T02:20:33;2.85;;;2.75;;
19560;SDS011;9927;47.792;10.616;2023-07-30T02:23:00;2.95;;;2.80;;
19560;SDS011;9927;47.792;10.616;2023-07-30T02:25:28;3.35;;;3.15;;
19560;SDS011;9927;47.792;10.616;2023-07-30T02:27:55;3.28;;;3.08;;
19560;SDS011;9927;47.792;10.616;2023-07-30T02:30:23;3.35;;;3.15;;
19560;SDS011;9927;47.792;10.616;2023-07-30T02:32:50;3.50;;;3.20;;
19560;SDS011;9927;47.792;10.616;2023-07-30T02:35:18;3.50;;;3.30;;
19560;SDS011;9927;47.792;10.616;2023-07-30T02:37:45;3.30;;;3.10;;
19560;SDS011;9927;47.792;10.616;2023-07-30T02:40:12;3.30;;;3.10;;
19560;SDS011;9927;47.792;10.616;2023-07-30T02:42:39;3.05;;;2.85;;
19560;SDS011;9927;47.792;10.616;2023-07-30T02:45:07;5.40;;;3.22;;
19560;SDS011;9927;47.792;10.616;2023-07-30T02:47:34;3.20;;;3.00;;
19560;SDS011;9927;47.792;10.616;2023-07-30T02:50:02;3.50;;;3.40;;
19560;SDS011;9927;47.792;10.616;2023-07-30T02:52:31;3.90;;;2.97;;
19560;SDS011;9927;47.792;10.616;2023-07-30T02:54:58;3.25;;;3.05;;
19560;SDS011;9927;47.792;10.616;2023-07-30T02:57:25;3.58;;;3.38;;
19560;SDS011;9927;47.792;10.616;2023-07-30T02:59:52;3.63;;;3.42;;
19560;SDS011;9927;47.792;10.616;2023-07-30T03:02:20;3.85;;;3.60;;
19560;SDS011;9927;47.792;10.616;2023-07-30T03:04:47;3.55;;;3.35;;
19560;SDS011;9927;47.792;10.616;2023-07-30T03:07:14;3.10;;;3.00;;
19560;SDS011;9927;47.792;10.616;2023-07-30T03:09:41;3.63;;;3.33;;
19560;SDS011;9927;47.792;10.616;2023-07-30T03:12:09;3.58;;;3.22;;
19560;SDS011;9927;47.792;10.616;2023-07-30T03:14:36;3.80;;;3.60;;
19560;SDS011;9927;47.792;10.616;2023-07-30T03:17:03;3.53;;;3.33;;
19560;SDS011;9927;47.792;10.616;2023-07-30T03:19:31;3.10;;;3.00;;
19560;SDS011;9927;47.792;10.616;2023-07-30T03:21:59;3.90;;;3.60;;
19560;SDS011;9927;47.792;10.616;2023-07-30T03:24:26;3.30;;;3.10;;
19560;SDS011;9927;47.792;10.616;2023-07-30T03:26:53;3.55;;;3.13;;
19560;SDS011;9927;47.792;10.616;2023-07-30T03:29:20;3.33;;;3.13;;
19560;SDS011;9927;47.792;10.616;2023-07-30T03:31:47;3.90;;;3.25;;
19560;SDS011;9927;47.792;10.616;2023-07-30T03:34:15;3.38;;;3.28;;
19560;SDS011;9927;47.792;10.616;2023-07-30T03:36:42;3.40;;;3.20;;
19560;SDS011;9927;47.792;10.616;2023-07-30T03:39:09;3.25;;;3.15;;
19560;SDS011;9927;47.792;10.616;2023-07-30T03:41:37;3.00;;;2.90;;
19560;SDS011;9927;47.792;10.616;2023-07-30T03:44:05;3.45;;;3.25;;
19560;SDS011;9927;47.792;10.616;2023-07-30T03:46:32;3.15;;;2.95;;
19560;SDS011;9927;47.792;10.616;2023-07-30T03:48:59;4.10;;;3.80;;
19560;SDS011;9927;47.792;10.616;2023-07-30T03:51:27;3.75;;;3.45;;
19560;SDS011;9927;47.792;10.616;2023-07-30T03:53:55;3.45;;;3.25;;
19560;SDS011;9927;47.792;10.616;2023-07-30T03:56:22;5.05;;;3.80;;
19560;SDS011;9927;47.792;10.616;2023-07-30T03:58:49;3.80;;;3.60;;
19560;SDS011;9927;47.792;10.616;2023-07-30T04:01:17;3.13;;;2.92;;
19560;SDS011;9927;47.792;10.616;2023-07-30T04:03:44;4.00;;;3.72;;
19560;SDS011;9927;47.792;10.616;2023-07-30T04:06:11;3.95;;;3.65;;
19560;SDS011;9927;47.792;10.616;2023-07-30T04:08:38;3.13;;;3.03;;
19560;SDS011;9927;47.792;10.616;2023-07-30T04:11:06;3.70;;;3.50;;
19560;SDS011;9927;47.792;10.616;2023-07-30T04:13:33;3.65;;;3.40;;
19560;SDS011;9927;47.792;10.616;2023-07-30T04:16:01;3.72;;;3.53;;
19560;SDS011;9927;47.792;10.616;2023-07-30T04:18:28;4.18;;;3.88;;
19560;SDS011;9927;47.792;10.616;2023-07-30T04:20:55;2.95;;;2.85;;
19560;SDS011;9927;47.792;10.616;2023-07-30T04:23:22;3.78;;;3.58;;
19560;SDS011;9927;47.792;10.616;2023-07-30T04:25:50;3.97;;;3.78;;
19560;SDS011;9927;47.792;10.616;2023-07-30T04:28:17;3.70;;;3.50;;
19560;SDS011;9927;47.792;10.616;2023-07-30T04:30:45;4.28;;;3.97;;
19560;SDS011;9927;47.792;10.616;2023-07-30T04:33:15;3.72;;;3.53;;
19560;SDS011;9927;47.792;10.616;2023-07-30T04:35:42;3.80;;;3.60;;
19560;SDS011;9927;47.792;10.616;2023-07-30T04:38:09;4.60;;;4.25;;
19560;SDS011;9927;47.792;10.616;2023-07-30T04:40:37;3.30;;;3.10;;
19560;SDS011;9927;47.792;10.616;2023-07-30T04:43:05;3.72;;;3.38;;
19560;SDS011;9927;47.792;10.616;2023-07-30T04:45:32;3.22;;;3.13;;
19560;SDS011;9927;47.792;10.616;2023-07-30T04:47:59;3.83;;;3.63;;
19560;SDS011;9927;47.792;10.616;2023-07-30T04:50:27;3.33;;;3.13;;
19560;SDS011;9927;47.792;10.616;2023-07-30T04:52:54;3.10;;;3.00;;
19560;SDS011;9927;47.792;10.616;2023-07-30T04:55:21;4.05;;;3.40;;
19560;SDS011;9927;47.792;10.616;2023-07-30T04:57:48;3.80;;;3.53;;
19560;SDS011;9927;47.792;10.616;2023-07-30T05:00:16;3.50;;;3.30;;
19560;SDS011;9927;47.792;10.616;2023-07-30T05:02:43;3.17;;;3.03;;
19560;SDS011;9927;47.792;10.616;2023-07-30T05:05:10;3.42;;;2.97;;
19560;SDS011;9927;47.792;10.616;2023-07-30T05:07:38;3.40;;;3.20;;
19560;SDS011;9927;47.792;10.616;2023-07-30T05:10:05;3.40;;;3.22;;
19560;SDS011;9927;47.792;10.616;2023-07-30T05:12:36;3.17;;;3.00;;
19560;SDS011;9927;47.792;10.616;2023-07-30T05:15:04;3.55;;;3.17;;
19560;SDS011;9927;47.792;10.616;2023-07-30T05:17:32;4.20;;;3.80;;
19560;SDS011;9927;47.792;10.616;2023-07-30T05:19:59;3.50;;;3.30;;
19560;SDS011;9927;47.792;10.616;2023-07-30T05:22:27;4.40;;;3.03;;
19560;SDS011;9927;47.792;10.616;2023-07-30T05:24:54;3.00;;;2.80;;
19560;SDS011;9927;47.792;10.616;2023-07-30T05:27:21;3.33;;;3.13;;
19560;SDS011;9927;47.792;10.616;2023-07-30T05:29:48;3.75;;;3.47;;
19560;SDS011;9927;47.792;10.616;2023-07-30T05:32:16;3.50;;;3.30;;
19560;SDS011;9927;47.792;10.616;2023-07-30T05:34:43;3.47;;;3.28;;
19560;SDS011;9927;47.792;10.616;2023-07-30T05:37:11;3.60;;;3.40;;
19560;SDS011;9927;47.792;10.616;2023-07-30T05:39:38;3.60;;;3.40;;
19560;SDS011;9927;47.792;10.616;2023-07-30T05:42:05;4.07;;;3.08;;
19560;SDS011;9927;47.792;10.616;2023-07-30T05:44:32;3.00;;;2.90;;
19560;SDS011;9927;47.792;10.616;2023-07-30T05:47:00;3.42;;;3.13;;
19560;SDS011;9927;47.792;10.616;2023-07-30T05:49:27;3.15;;;3.00;;
19560;SDS011;9927;47.792;10.616;2023-07-30T05:51:54;3.40;;;3.20;;
19560;SDS011;9927;47.792;10.616;2023-07-30T05:54:22;3.78;;;3.45;;
19560;SDS011;9927;47.792;10.616;2023-07-30T05:56:49;3.28;;;3.00;;
19560;SDS011;9927;47.792;10.616;2023-07-30T05:59:16;3.55;;;3.35;;
19560;SDS011;9927;47.792;10.616;2023-07-30T06:01:47;2.85;;;2.72;;
19560;SDS011;9927;47.792;10.616;2023-07-30T06:04:14;3.05;;;2.95;;
19560;SDS011;9927;47.792;10.616;2023-07-30T06:06:41;2.80;;;2.70;;
19560;SDS011;9927;47.792;10.616;2023-07-30T06:09:09;3.05;;;2.92;;
19560;SDS011;9927;47.792;10.616;2023-07-30T06:11:38;2.78;;;2.58;;
19560;SDS011;9927;47.792;10.616;2023-07-30T06:14:05;2.45;;;2.35;;
19560;SDS011;9927;47.792;10.616;2023-07-30T06:16:33;2.70;;;2.60;;
19560;SDS011;9927;47.792;10.616;2023-07-30T06:19:00;2.90;;;2.50;;
19560;SDS011;9927;47.792;10.616;2023-07-30T06:21:27;2.50;;;2.40;;
19560;SDS011;9927;47.792;10.616;2023-07-30T06:23:54;2.17;;;2.15;;
19560;SDS011;9927;47.792;10.616;2023-07-30T06:26:22;2.30;;;2.20;;
19560;SDS011;9927;47.792;10.616;2023-07-30T06:28:49;2.30;;;2.20;;
19560;SDS011;9927;47.792;10.616;2023-07-30T06:31:16;2.40;;;2.30;;
19560;SDS011;9927;47.792;10.616;2023-07-30T06:33:43;2.03;;;1.92;;
19560;SDS011;9927;47.792;10.616;2023-07-30T06:36:11;2.08;;;2.08;;
19560;SDS011;9927;47.792;10.616;2023-07-30T06:38:38;2.15;;;2.15;;
19560;SDS011;9927;47.792;10.616;2023-07-30T06:41:05;2.22;;;2.08;;
19560;SDS011;9927;47.792;10.616;2023-07-30T06:43:32;2.40;;;2.20;;
19560;SDS011;9927;47.792;10.616;2023-07-30T06:46:00;2.60;;;2.40;;
19560;SDS011;9927;47.792;10.616;2023-07-30T06:48:27;2.35;;;2.25;;
19560;SDS011;9927;47.792;10.616;2023-07-30T06:50:55;2.13;;;2.03;;
19560;SDS011;9927;47.792;10.616;2023-07-30T06:53:22;1.90;;;1.90;;
19560;SDS011;9927;47.792;10.616;2023-07-30T06:55:49;2.13;;;2.13;;
19560;SDS011;9927;47.792;10.616;2023-07-30T06:58:17;2.08;;;2.08;;
19560;SDS011;9927;47.792;10.616;2023-07-30T07:00:44;1.95;;;1.90;;
19560;SDS011;9927;47.792;10.616;2023-07-30T07:03:11;2.28;;;2.15;;
19560;SDS011;9927;47.792;10.616;2023-07-30T07:05:38;2.08;;;1.98;;
19560;SDS011;9927;47.792;10.616;2023-07-30T07:08:09;1.60;;;1.60;;
19560;SDS011;9927;47.792;10.616;2023-07-30T07:10:37;2.03;;;1.92;;
19560;SDS011;9927;47.792;10.616;2023-07-30T07:13:04;2.05;;;1.95;;
19560;SDS011;9927;47.792;10.616;2023-07-30T07:15:31;1.70;;;1.70;;
19560;SDS011;9927;47.792;10.616;2023-07-30T07:17:58;1.50;;;1.50;;
19560;SDS011;9927;47.792;10.616;2023-07-30T07:20:26;2.03;;;1.92;;
19560;SDS011;9927;47.792;10.616;2023-07-30T07:22:54;1.85;;;1.77;;
19560;SDS011;9927;47.792;10.616;2023-07-30T07:25:21;2.28;;;1.95;;
19560;SDS011;9927;47.792;10.616;2023-07-30T07:27:48;1.65;;;1.65;;
19560;SDS011;9927;47.792;10.616;2023-07-30T07:30:15;1.83;;;1.83;;
19560;SDS011;9927;47.792;10.616;2023-07-30T07:32:43;1.80;;;1.80;;
19560;SDS011;9927;47.792;10.616;2023-07-30T07:35:10;1.88;;;1.77;;
19560;SDS011;9927;47.792;10.616;2023-07-30T07:37:37;1.90;;;1.90;;
19560;SDS011;9927;47.792;10.616;2023-07-30T07:40:05;1.95;;;1.95;;
19560;SDS011;9927;47.792;10.616;2023-07-30T07:42:34;1.98;;;1.80;;
19560;SDS011;9927;47.792;10.616;2023-07-30T07:45:02;1.90;;;1.80;;
19560;SDS011;9927;47.792;10.616;2023-07-30T07:47:30;1.90;;;1.90;;
19560;SDS011;9927;47.792;10.616;2023-07-30T07:49:57;1.70;;;1.70;;
19560;SDS011;9927;47.792;10.616;2023-07-30T07:52:24;2.10;;;2.00;;
19560;SDS011;9927;47.792;10.616;2023-07-30T07:54:51;2.10;;;2.00;;
19560;SDS011;9927;47.792;10.616;2023-07-30T07:57:19;1.75;;;1.75;;
19560;SDS011;9927;47.792;10.616;2023-07-30T07:59:46;1.80;;;1.70;;
19560;SDS011;9927;47.792;10.616;2023-07-30T08:02:14;1.50;;;1.50;;
19560;SDS011;9927;47.792;10.616;2023-07-30T08:04:41;1.75;;;1.70;;
19560;SDS011;9927;47.792;10.616;2023-07-30T08:07:08;1.58;;;1.58;;
19560;SDS011;9927;47.792;10.616;2023-07-30T08:09:36;1.70;;;1.70;;
19560;SDS011;9927;47.792;10.616;2023-07-30T08:12:03;1.88;;;1.88;;
19560;SDS011;9927;47.792;10.616;2023-07-30T08:14:31;1.52;;;1.48;;
19560;SDS011;9927;47.792;10.616;2023-07-30T08:16:58;1.40;;;1.40;;
19560;SDS011;9927;47.792;10.616;2023-07-30T08:19:25;1.60;;;1.60;;
19560;SDS011;9927;47.792;10.616;2023-07-30T08:21:53;1.75;;;1.55;;
19560;SDS011;9927;47.792;10.616;2023-07-30T08:24:23;1.90;;;1.80;;
19560;SDS011;9927;47.792;10.616;2023-07-30T08:26:50;1.83;;;1.83;;
19560;SDS011;9927;47.792;10.616;2023-07-30T08:29:18;1.52;;;1.52;;
19560;SDS011;9927;47.792;10.616;2023-07-30T08:31:45;1.70;;;1.60;;
19560;SDS011;9927;47.792;10.616;2023-07-30T08:34:13;1.30;;;1.30;;
19560;SDS011;9927;47.792;10.616;2023-07-30T08:36:40;1.40;;;1.40;;
19560;SDS011;9927;47.792;10.616;2023-07-30T08:39:07;2.03;;;1.92;;
19560;SDS011;9927;47.792;10.616;2023-07-30T08:41:35;4.88;;;1.67;;
19560;SDS011;9927;47.792;10.616;2023-07-30T08:44:02;1.50;;;1.50;;
19560;SDS011;9927;47.792;10.616;2023-07-30T08:46:30;2.03;;;1.95;;
19560;SDS011;9927;47.792;10.616;2023-07-30T08:48:58;1.95;;;1.80;;
19560;SDS011;9927;47.792;10.616;2023-07-30T08:51:26;1.95;;;1.85;;
19560;SDS011;9927;47.792;10.616;2023-07-30T08:53:54;1.70;;;1.60;;
19560;SDS011;9927;47.792;10.616;2023-07-30T08:56:24;1.70;;;1.70;;
19560;SDS011;9927;47.792;10.616;2023-07-30T08:58:52;1.77;;;1.67;;
19560;SDS011;9927;47.792;10.616;2023-07-30T09:01:24;2.03;;;1.90;;
19560;SDS011;9927;47.792;10.616;2023-07-30T09:03:57;1.60;;;1.60;;
19560;SDS011;9927;47.792;10.616;2023-07-30T09:06:29;1.50;;;1.50;;
19560;SDS011;9927;47.792;10.616;2023-07-30T09:08:57;1.92;;;1.92;;
19560;SDS011;9927;47.792;10.616;2023-07-30T09:11:27;2.70;;;1.80;;
19560;SDS011;9927;47.792;10.616;2023-07-30T09:13:54;1.70;;;1.70;;
19560;SDS011;9927;47.792;10.616;2023-07-30T09:16:26;1.85;;;1.80;;
19560;SDS011;9927;47.792;10.616;2023-07-30T09:18:54;2.25;;;1.98;;
19560;SDS011;9927;47.792;10.616;2023-07-30T09:21:33;1.95;;;1.83;;
19560;SDS011;9927;47.792;10.616;2023-07-30T09:24:02;1.73;;;1.73;;
19560;SDS011;9927;47.792;10.616;2023-07-30T09:26:44;1.90;;;1.83;;
19560;SDS011;9927;47.792;10.616;2023-07-30T09:29:12;1.70;;;1.70;;
19560;SDS011;9927;47.792;10.616;2023-07-30T09:31:45;1.98;;;1.98;;
19560;SDS011;9927;47.792;10.616;2023-07-30T09:34:15;1.90;;;1.83;;
19560;SDS011;9927;47.792;10.616;2023-07-30T09:36:44;1.92;;;1.83;;
19560;SDS011;9927;47.792;10.616;2023-07-30T09:41:50;2.10;;;2.00;;
19560;SDS011;9927;47.792;10.616;2023-07-30T09:44:19;2.05;;;1.98;;
19560;SDS011;9927;47.792;10.616;2023-07-30T09:46:48;2.10;;;2.10;;
19560;SDS011;9927;47.792;10.616;2023-07-30T09:49:16;1.90;;;1.90;;
19560;SDS011;9927;47.792;10.616;2023-07-30T09:51:44;1.92;;;1.92;;
19560;SDS011;9927;47.792;10.616;2023-07-30T09:54:14;2.50;;;2.30;;
19560;SDS011;9927;47.792;10.616;2023-07-30T09:56:42;2.30;;;2.20;;
19560;SDS011;9927;47.792;10.616;2023-07-30T09:59:09;2.22;;;1.92;;
19560;SDS011;9927;47.792;10.616;2023-07-30T10:01:43;1.92;;;1.92;;
19560;SDS011;9927;47.792;10.616;2023-07-30T10:04:12;2.30;;;2.20;;
19560;SDS011;9927;47.792;10.616;2023-07-30T10:06:44;1.88;;;1.88;;
19560;SDS011;9927;47.792;10.616;2023-07-30T10:09:20;2.88;;;2.40;;
19560;SDS011;9927;47.792;10.616;2023-07-30T10:11:50;2.03;;;1.98;;
19560;SDS011;9927;47.792;10.616;2023-07-30T10:14:21;2.20;;;2.10;;
19560;SDS011;9927;47.792;10.616;2023-07-30T10:16:52;2.28;;;2.10;;
19560;SDS011;9927;47.792;10.616;2023-07-30T10:19:24;2.20;;;2.10;;
19560;SDS011;9927;47.792;10.616;2023-07-30T10:24:38;2.22;;;1.88;;
19560;SDS011;9927;47.792;10.616;2023-07-30T10:27:06;2.20;;;2.10;;
19560;SDS011;9927;47.792;10.616;2023-07-30T10:29:36;2.10;;;2.00;;
19560;SDS011;9927;47.792;10.616;2023-07-30T10:32:08;2.10;;;2.08;;
19560;SDS011;9927;47.792;10.616;2023-07-30T10:34:45;2.30;;;2.20;;
19560;SDS011;9927;47.792;10.616;2023-07-30T10:37:20;2.45;;;2.00;;
19560;SDS011;9927;47.792;10.616;2023-07-30T10:39:48;2.45;;;2.35;;
19560;SDS011;9927;47.792;10.616;2023-07-30T10:42:15;1.83;;;1.83;;
19560;SDS011;9927;47.792;10.616;2023-07-30T10:44:45;2.03;;;1.92;;
19560;SDS011;9927;47.792;10.616;2023-07-30T10:47:12;2.10;;;2.00;;
19560;SDS011;9927;47.792;10.616;2023-07-30T10:50:02;2.00;;;1.90;;
19560;SDS011;9927;47.792;10.616;2023-07-30T10:52:30;2.40;;;2.30;;
19560;SDS011;9927;47.792;10.616;2023-07-30T10:55:01;2.08;;;1.98;;
19560;SDS011;9927;47.792;10.616;2023-07-30T10:57:31;1.98;;;1.98;;
19560;SDS011;9927;47.792;10.616;2023-07-30T10:59:59;2.28;;;2.10;;
19560;SDS011;9927;47.792;10.616;2023-07-30T11:02:27;1.90;;;1.90;;
19560;SDS011;9927;47.792;10.616;2023-07-30T11:04:56;1.90;;;1.90;;
19560;SDS011;9927;47.792;10.616;2023-07-30T11:07:23;2.15;;;2.05;;
19560;SDS011;9927;47.792;10.616;2023-07-30T11:10:00;1.75;;;1.70;;
19560;SDS011;9927;47.792;10.616;2023-07-30T11:12:30;1.85;;;1.80;;
19560;SDS011;9927;47.792;10.616;2023-07-30T11:15:02;1.90;;;1.90;;
19560;SDS011;9927;47.792;10.616;2023-07-30T11:17:30;2.00;;;1.92;;
19560;SDS011;9927;47.792;10.616;2023-07-30T11:19:57;1.98;;;1.90;;
19560;SDS011;9927;47.792;10.616;2023-07-30T11:22:31;1.80;;;1.80;;
19560;SDS011;9927;47.792;10.616;2023-07-30T11:24:59;1.70;;;1.70;;
19560;SDS011;9927;47.792;10.616;2023-07-30T11:27:28;2.00;;;2.00;;
19560;SDS011;9927;47.792;10.616;2023-07-30T11:29:56;1.48;;;1.48;;
19560;SDS011;9927;47.792;10.616;2023-07-30T11:32:24;1.70;;;1.70;;
19560;SDS011;9927;47.792;10.616;2023-07-30T11:34:53;1.75;;;1.75;;
19560;SDS011;9927;47.792;10.616;2023-07-30T11:37:21;1.48;;;1.48;;
19560;SDS011;9927;47.792;10.616;2023-07-30T11:39:49;1.70;;;1.70;;
19560;SDS011;9927;47.792;10.616;2023-07-30T11:42:19;1.60;;;1.60;;
19560;SDS011;9927;47.792;10.616;2023-07-30T11:44:46;1.85;;;1.70;;
19560;SDS011;9927;47.792;10.616;2023-07-30T11:47:20;1.95;;;1.60;;
19560;SDS011;9927;47.792;10.616;2023-07-30T11:49:55;1.77;;;1.77;;
19560;SDS011;9927;47.792;10.616;2023-07-30T11:52:26;1.88;;;1.80;;
19560;SDS011;9927;47.792;10.616;2023-07-30T11:55:00;1.95;;;1.90;;
19560;SDS011;9927;47.792;10.616;2023-07-30T11:57:36;1.88;;;1.88;;
19560;SDS011;9927;47.792;10.616;2023-07-30T12:00:03;2.05;;;1.95;;
19560;SDS011;9927;47.792;10.616;2023-07-30T12:02:35;1.63;;;1.60;;
19560;SDS011;9927;47.792;10.616;2023-07-30T12:05:02;3.22;;;1.90;;
19560;SDS011;9927;47.792;10.616;2023-07-30T12:07:41;1.80;;;1.80;;
19560;SDS011;9927;47.792;10.616;2023-07-30T12:10:09;1.90;;;1.80;;
19560;SDS011;9927;47.792;10.616;2023-07-30T12:12:44;1.92;;;1.90;;
19560;SDS011;9927;47.792;10.616;2023-07-30T12:15:12;2.25;;;1.90;;
19560;SDS011;9927;47.792;10.616;2023-07-30T12:17:40;1.88;;;1.85;;
19560;SDS011;9927;47.792;10.616;2023-07-30T12:20:07;2.08;;;1.98;;
19560;SDS011;9927;47.792;10.616;2023-07-30T12:22:35;2.10;;;2.00;;
19560;SDS011;9927;47.792;10.616;2023-07-30T12:25:03;2.10;;;2.00;;
19560;SDS011;9927;47.792;10.616;2023-07-30T12:27:30;1.83;;;1.83;;
19560;SDS011;9927;47.792;10.616;2023-07-30T12:29:58;1.90;;;1.90;;
19560;SDS011;9927;47.792;10.616;2023-07-30T12:32:25;1.70;;;1.70;;
19560;SDS011;9927;47.792;10.616;2023-07-30T12:34:55;2.30;;;2.20;;
19560;SDS011;9927;47.792;10.616;2023-07-30T12:37:22;2.13;;;2.05;;
19560;SDS011;9927;47.792;10.616;2023-07-30T12:39:49;2.22;;;2.13;;
19560;SDS011;9927;47.792;10.616;2023-07-30T12:42:16;1.98;;;1.90;;
19560;SDS011;9927;47.792;10.616;2023-07-30T12:44:44;2.13;;;2.03;;
19560;SDS011;9927;47.792;10.616;2023-07-30T12:47:11;2.20;;;2.00;;
19560;SDS011;9927;47.792;10.616;2023-07-30T12:49:38;2.10;;;2.00;;
19560;SDS011;9927;47.792;10.616;2023-07-30T12:52:05;2.38;;;2.28;;
19560;SDS011;9927;47.792;10.616;2023-07-30T12:54:33;2.20;;;2.10;;
19560;SDS011;9927;47.792;10.616;2023-07-30T12:57:00;2.60;;;2.40;;
19560;SDS011;9927;47.792;10.616;2023-07-30T12:59:27;2.10;;;2.00;;
19560;SDS011;9927;47.792;10.616;2023-07-30T13:01:54;2.30;;;2.20;;
19560;SDS011;9927;47.792;10.616;2023-07-30T13:04:23;2.30;;;2.10;;
19560;SDS011;9927;47.792;10.616;2023-07-30T13:06:53;2.28;;;2.17;;
19560;SDS011;9927;47.792;10.616;2023-07-30T13:09:20;1.90;;;1.90;;
19560;SDS011;9927;47.792;10.616;2023-07-30T13:11:48;2.10;;;2.03;;
19560;SDS011;9927;47.792;10.616;2023-07-30T13:14:15;2.15;;;2.10;;
19560;SDS011;9927;47.792;10.616;2023-07-30T13:16:42;2.55;;;2.35;;
19560;SDS011;9927;47.792;10.616;2023-07-30T13:19:10;2.58;;;2.30;;
19560;SDS011;9927;47.792;10.616;2023-07-30T13:21:37;2.38;;;2.28;;
19560;SDS011;9927;47.792;10.616;2023-07-30T13:24:05;2.30;;;2.10;;
19560;SDS011;9927;47.792;10.616;2023-07-30T13:26:33;2.30;;;2.20;;
19560;SDS011;9927;47.792;10.616;2023-07-30T13:29:01;2.22;;;2.22;;
19560;SDS011;9927;47.792;10.616;2023-07-30T13:31:28;3.50;;;2.13;;
19560;SDS011;9927;47.792;10.616;2023-07-30T13:33:56;2.28;;;2.17;;
19560;SDS011;9927;47.792;10.616;2023-07-30T13:36:23;2.30;;;2.20;;
19560;SDS011;9927;47.792;10.616;2023-07-30T13:38:50;2.10;;;2.10;;
19560;SDS011;9927;47.792;10.616;2023-07-30T13:41:18;2.50;;;2.30;;
19560;SDS011;9927;47.792;10.616;2023-07-30T13:43:45;2.30;;;2.20;;
19560;SDS011;9927;47.792;10.616;2023-07-30T13:46:12;2.38;;;2.17;;
19560;SDS011;9927;47.792;10.616;2023-07-30T13:48:39;2.35;;;2.25;;
19560;SDS011;9927;47.792;10.616;2023-07-30T13:51:07;2.13;;;2.10;;
19560;SDS011;9927;47.792;10.616;2023-07-30T13:53:34;2.10;;;2.10;;
19560;SDS011;9927;47.792;10.616;2023-07-30T13:56:05;2.20;;;2.10;;
19560;SDS011;9927;47.792;10.616;2023-07-30T13:58:32;2.30;;;2.20;;
19560;SDS011;9927;47.792;10.616;2023-07-30T14:00:59;2.03;;;2.00;;
19560;SDS011;9927;47.792;10.616;2023-07-30T14:03:26;2.30;;;2.20;;
19560;SDS011;9927;47.792;10.616;2023-07-30T14:05:54;2.45;;;2.33;;
19560;SDS011;9927;47.792;10.616;2023-07-30T14:08:21;2.40;;;2.30;;
19560;SDS011;9927;47.792;10.616;2023-07-30T14:10:48;2.40;;;2.30;;
19560;SDS011;9927;47.792;10.616;2023-07-30T14:13:16;2.47;;;2.38;;
19560;SDS011;9927;47.792;10.616;2023-07-30T14:15:43;2.53;;;2.33;;
19560;SDS011;9927;47.792;10.616;2023-07-30T14:18:10;2.83;;;2.63;;
19560;SDS011;9927;47.792;10.616;2023-07-30T14:20:37;2.45;;;2.35;;
19560;SDS011;9927;47.792;10.616;2023-07-30T14:23:05;2.58;;;2.38;;
19560;SDS011;9927;47.792;10.616;2023-07-30T14:25:32;2.78;;;2.58;;
19560;SDS011;9927;47.792;10.616;2023-07-30T14:27:59;2.45;;;2.35;;
19560;SDS011;9927;47.792;10.616;2023-07-30T14:30:26;2.85;;;2.50;;
19560;SDS011;9927;47.792;10.616;2023-07-30T14:32:54;2.55;;;2.45;;
19560;SDS011;9927;47.792;10.616;2023-07-30T14:35:21;5.45;;;2.42;;
19560;SDS011;9927;47.792;10.616;2023-07-30T14:37:49;2.65;;;2.45;;
19560;SDS011;9927;47.792;10.616;2023-07-30T14:40:16;2.50;;;2.30;;
19560;SDS011;9927;47.792;10.616;2023-07-30T14:42:44;2.25;;;2.15;;
19560;SDS011;9927;47.792;10.616;2023-07-30T14:45:11;2.88;;;2.28;;
19560;SDS011;9927;47.792;10.616;2023-07-30T14:47:39;2.38;;;2.28;;
19560;SDS011;9927;47.792;10.616;2023-07-30T14:50:06;2.47;;;2.35;;
19560;SDS011;9927;47.792;10.616;2023-07-30T14:52:33;2.50;;;2.40;;
19560;SDS011;9927;47.792;10.616;2023-07-30T14:55:01;2.65;;;2.45;;
19560;SDS011;9927;47.792;10.616;2023-07-30T14:57:28;2.30;;;2.20;;
19560;SDS011;9927;47.792;10.616;2023-07-30T14:59:57;2.28;;;2.17;;